Belo Horizonte, Brazil

7:35 AM BRST on February 12, 2016 (GMT -0200)
Tancredo Neves International | | Change Station
CLOSE
Current Station
Airport
Location: Belo Horizonte,
Elevation: 2713 ft
Nearby Weather Stations

Elev 2713 ft 19.64 °S, 43.97 °W | Updated 35 minutes ago

Mostly Cloudy
Mostly Cloudy
66 °F
Feels Like 66 °F
N
12
Wind Variable Wind from NE

Today
High -- | Low -- °F
--% Chance of Precip.
Yesterday
High -- | Low -- °F
Precip. -- in
Pressure 30.04 in
Visibility 6.2 miles
Clouds Few 500 ft
Mostly Cloudy 1500 ft
Mostly Cloudy 9000 ft
Dew Point 64 °F
Humidity 94%
Rainfall 0.00 in
Snow Depth Not available.
6:46 AM 7:33 PM
Waxing Crescent, 19% visible
METAR SBCF 120900Z 04010KT 9999 FEW005 BKN015 BKN090 19/18 Q1017
Pressure 30.04 in
Visibility 6.2 miles
Clouds Few 500 ft
Mostly Cloudy 1500 ft
Mostly Cloudy 9000 ft
Dew Point 64 °F
Humidity 94%
Rainfall 0.00 in
Snow Depth Not available.
6:46 AM 7:33 PM
Waxing Crescent, 19% visible
METAR SBCF 120900Z 04010KT 9999 FEW005 BKN015 BKN090 19/18 Q1017

10-Day Weather Forecast

No radar image for this location.
×

Almanac

Astronomy

Feb. 12, 2016 Rise Set
Actual Time
Civil Twilight
Nautical Twilight
Astronomical Twilight
Moon
Length of Visible Light
Length of Day
Tomorrow will be .
, % of the Moon is Illuminated

Today's Extremes

Country Highs Country Lows

Community

WunderPhotos

Upload Photos

1,892,286 photos uploaded!

WunderBlog® & News

Nearby

Air Quality

  Air Quality AQ Index Pollutant
Not available.

Snow Depth

Station Depth Elevation

Earthquake Activity

City Distance Mag. Time & Date
Minimum magnitude displayed is 2.5.

Coastal Water Temperatures

Place Temperature

Stations

Nearby Weather Stations

Station Location Temp. Windchill Dew Point Humidity Wind Precip. Elev Updated Type